Time;durP1;ratioP1;P1;durP2;ratioP2;P2;SDS_P1;SDS_P2;PMS_P1;PMS_P2;Temp;Humidity;BMP_temperature;BMP_pressure;BME280_temperature;BME280_humidity;BME280_pressure;Samples;Min_cycle;Max_cycle;Signal;HPM_P1;HPM_P2
2023/04/20 00:00:10;;;;;;;1.52;0.90;;;19.80;58.90;;;;;;4915949;29;20230;-51
2023/04/20 00:02:40;;;;;;;1.75;1.10;;;19.80;58.80;;;;;;4912999;29;20207;-53
2023/04/20 00:05:12;;;;;;;1.25;1.02;;;19.90;58.80;;;;;;4916170;29;20222;-52
2023/04/20 00:07:43;;;;;;;1.13;1.00;;;19.90;58.90;;;;;;4915142;29;20279;-51
2023/04/20 00:10:14;;;;;;;0.70;0.70;;;19.90;59.00;;;;;;4920101;29;20230;-51
2023/04/20 00:12:47;;;;;;;1.30;1.20;;;19.90;59.00;;;;;;4933994;29;20199;-50
2023/04/20 00:15:17;;;;;;;1.05;0.85;;;20.00;59.10;;;;;;4918004;29;20204;-49
2023/04/20 00:17:48;;;;;;;1.00;0.82;;;20.00;59.10;;;;;;4916027;29;20208;-50
2023/04/20 00:20:18;;;;;;;0.95;0.82;;;20.00;59.20;;;;;;4914707;29;20200;-52
2023/04/20 00:22:49;;;;;;;0.95;0.88;;;20.10;60.00;;;;;;4916294;29;20211;-53
2023/04/20 00:25:20;;;;;;;1.42;0.90;;;20.10;60.30;;;;;;4915288;29;20203;-49
2023/04/20 00:27:52;;;;;;;1.00;0.90;;;20.10;60.20;;;;;;4915959;29;20200;-48
2023/04/20 00:30:23;;;;;;;0.85;0.80;;;20.20;60.20;;;;;;4914357;29;20227;-53
2023/04/20 00:32:54;;;;;;;1.15;1.05;;;20.20;60.00;;;;;;4912800;29;20239;-52
2023/04/20 00:35:24;;;;;;;1.10;1.00;;;20.20;59.90;;;;;;4914326;29;20200;-51
2023/04/20 00:37:55;;;;;;;1.27;0.90;;;20.30;59.80;;;;;;4915396;29;20204;-50
2023/04/20 00:40:26;;;;;;;1.02;0.85;;;20.30;59.70;;;;;;4915443;29;20207;-53
2023/04/20 00:42:58;;;;;;;1.25;0.98;;;20.30;59.70;;;;;;4915383;29;20204;-50
2023/04/20 00:45:29;;;;;;;1.38;0.90;;;20.40;59.60;;;;;;4915711;29;20665;-51
2023/04/20 00:47:59;;;;;;;1.08;0.90;;;20.40;59.60;;;;;;4915121;29;20211;-53
2023/04/20 00:50:30;;;;;;;2.30;0.82;;;20.40;59.60;;;;;;4915165;29;20580;-52
2023/04/20 00:53:02;;;;;;;1.05;0.95;;;20.50;59.60;;;;;;4915073;29;20211;-52
2023/04/20 00:55:33;;;;;;;1.00;0.90;;;20.50;59.50;;;;;;4915022;29;20200;-49
2023/04/20 00:58:05;;;;;;;1.10;0.80;;;20.50;59.40;;;;;;4914360;29;20204;-56
2023/04/20 01:00:36;;;;;;;1.25;0.90;;;20.50;59.70;;;;;;4914747;29;20680;-50
2023/04/20 01:03:08;;;;;;;1.35;0.80;;;20.50;59.80;;;;;;4914439;29;20193;-50
2023/04/20 01:05:39;;;;;;;1.20;0.80;;;20.50;59.80;;;;;;4914800;29;20195;-51
2023/04/20 01:08:09;;;;;;;3.15;1.15;;;20.60;59.80;;;;;;4914313;29;20208;-55
2023/04/20 01:10:40;;;;;;;0.70;0.70;;;20.60;59.70;;;;;;4914694;29;20310;-51
2023/04/20 01:13:13;;;;;;;1.25;1.00;;;20.60;59.80;;;;;;4914854;29;20262;-50
2023/04/20 01:15:43;;;;;;;0.80;0.80;;;20.70;59.80;;;;;;4914877;29;20432;-56
2023/04/20 01:18:14;;;;;;;1.10;0.95;;;20.70;59.70;;;;;;4915469;29;20210;-54
2023/04/20 01:20:45;;;;;;;0.93;0.80;;;20.80;59.70;;;;;;4914608;29;20196;-50
2023/04/20 01:23:18;;;;;;;0.75;0.75;;;20.80;59.70;;;;;;4914839;29;20228;-53
2023/04/20 01:25:49;;;;;;;1.40;1.00;;;20.80;59.60;;;;;;4914573;29;20207;-53
2023/04/20 01:28:19;;;;;;;0.80;0.80;;;20.90;59.60;;;;;;4914114;29;20654;-56
2023/04/20 01:30:50;;;;;;;1.00;0.90;;;20.80;59.40;;;;;;4914425;29;20236;-53
2023/04/20 01:33:20;;;;;;;1.50;0.90;;;20.90;59.50;;;;;;4914843;29;20220;-52
2023/04/20 01:35:53;;;;;;;1.17;0.70;;;20.90;59.50;;;;;;4914674;29;20200;-56
2023/04/20 01:38:26;;;;;;;1.10;0.80;;;20.90;59.40;;;;;;4914273;29;20801;-51
2023/04/20 01:40:57;;;;;;;0.80;0.80;;;20.90;59.40;;;;;;4914885;29;20200;-57
2023/04/20 01:43:28;;;;;;;1.10;0.98;;;20.90;59.40;;;;;;4913777;29;20307;-54
2023/04/20 01:45:59;;;;;;;1.17;1.00;;;20.90;59.30;;;;;;4914109;29;20204;-50
2023/04/20 01:48:30;;;;;;;1.83;0.80;;;21.00;59.40;;;;;;4916983;29;20676;-52
2023/04/20 01:51:00;;;;;;;1.70;0.82;;;21.00;59.40;;;;;;4918008;29;20716;-50
2023/04/20 01:53:33;;;;;;;1.42;1.00;;;21.00;59.40;;;;;;4916792;29;20223;-56
2023/04/20 01:56:06;;;;;;;2.05;0.90;;;21.10;59.40;;;;;;4918237;29;20551;-51
2023/04/20 01:58:37;;;;;;;0.70;0.70;;;21.10;59.30;;;;;;4917890;29;20192;-52
2023/04/20 02:01:07;;;;;;;0.70;0.70;;;21.10;59.20;;;;;;4917909;29;20203;-49
2023/04/20 02:03:39;;;;;;;1.45;0.80;;;21.10;59.20;;;;;;4917843;29;20231;-56
2023/04/20 02:06:10;;;;;;;0.98;0.80;;;21.20;59.20;;;;;;4918556;29;20741;-56
2023/04/20 02:08:42;;;;;;;1.15;0.90;;;21.20;59.10;;;;;;4918698;29;20211;-57
2023/04/20 02:11:13;;;;;;;0.80;0.77;;;21.20;59.10;;;;;;4918411;29;20255;-56
2023/04/20 02:13:43;;;;;;;0.90;0.90;;;21.20;59.10;;;;;;4917727;29;20220;-55
2023/04/20 02:16:14;;;;;;;1.45;0.95;;;21.20;59.10;;;;;;4918075;29;20259;-56
2023/04/20 02:18:45;;;;;;;0.93;0.60;;;21.30;59.10;;;;;;4918205;29;20204;-57
2023/04/20 02:21:16;;;;;;;0.88;0.70;;;21.30;59.00;;;;;;4918572;29;20207;-57
2023/04/20 02:23:49;;;;;;;1.30;0.80;;;21.30;59.00;;;;;;4918905;29;20228;-49
2023/04/20 02:26:19;;;;;;;1.08;0.88;;;21.30;58.90;;;;;;4917953;29;20200;-54
2023/04/20 02:28:50;;;;;;;0.75;0.70;;;21.30;58.90;;;;;;4918413;29;20204;-52
2023/04/20 02:31:21;;;;;;;0.80;0.68;;;21.30;58.90;;;;;;4918008;29;20653;-56
2023/04/20 02:33:51;;;;;;;2.25;0.90;;;21.40;58.90;;;;;;4918065;29;20271;-52
2023/04/20 02:36:22;;;;;;;1.40;1.00;;;21.40;58.90;;;;;;4918022;29;20196;-54
2023/04/20 02:38:54;;;;;;;1.20;1.00;;;21.40;58.90;;;;;;4917726;29;20200;-53
2023/04/20 02:41:25;;;;;;;1.58;0.85;;;21.40;58.90;;;;;;4917644;29;20208;-52
2023/04/20 02:43:56;;;;;;;0.98;0.88;;;21.50;58.90;;;;;;4917701;29;20228;-56
2023/04/20 02:46:26;;;;;;;1.33;1.00;;;21.50;58.90;;;;;;4917791;29;20211;-55
2023/04/20 02:48:57;;;;;;;1.02;0.90;;;21.50;58.90;;;;;;4917835;29;20204;-56
2023/04/20 02:51:28;;;;;;;0.80;0.73;;;21.50;58.80;;;;;;4917916;29;20201;-52
2023/04/20 02:54:00;;;;;;;1.63;1.10;;;21.50;58.80;;;;;;4918124;29;20268;-53
2023/04/20 02:56:31;;;;;;;1.10;1.00;;;21.50;58.90;;;;;;4917747;29;20208;-50
2023/04/20 02:59:02;;;;;;;2.90;1.30;;;21.60;58.90;;;;;;4917041;29;20291;-50
2023/04/20 03:01:33;;;;;;;5.93;1.20;;;21.60;58.90;;;;;;4917529;29;20207;-48
2023/04/20 03:04:03;;;;;;;1.90;0.98;;;21.60;58.90;;;;;;4917602;29;20271;-52
2023/04/20 03:06:35;;;;;;;4.15;1.23;;;21.60;58.90;;;;;;4917448;29;20222;-50
2023/04/20 03:09:08;;;;;;;4.03;1.33;;;21.60;59.20;;;;;;4917436;29;20204;-51
2023/04/20 03:11:39;;;;;;;2.53;1.10;;;21.70;59.50;;;;;;4917289;29;20211;-52
2023/04/20 03:14:09;;;;;;;3.60;1.20;;;21.70;59.60;;;;;;4915631;29;20256;-55
2023/04/20 03:16:40;;;;;;;2.75;1.17;;;21.70;59.20;;;;;;4913740;29;20211;-55
2023/04/20 03:19:11;;;;;;;3.70;1.20;;;21.70;59.00;;;;;;4917583;29;20642;-56
2023/04/20 03:21:42;;;;;;;2.20;1.00;;;21.70;59.10;;;;;;4917615;29;20207;-56
2023/04/20 03:24:15;;;;;;;2.10;0.90;;;21.70;59.20;;;;;;4917625;29;20232;-54
2023/04/20 03:26:45;;;;;;;3.63;1.20;;;21.70;59.20;;;;;;4906155;29;20240;-54
2023/04/20 03:29:16;;;;;;;2.63;1.20;;;21.70;59.20;;;;;;4935134;29;20227;-54
2023/04/20 03:31:47;;;;;;;1.55;1.00;;;21.70;59.30;;;;;;4926259;29;20263;-53
2023/04/20 03:34:17;;;;;;;2.13;1.08;;;21.70;59.20;;;;;;4916558;29;20589;-54
2023/04/20 03:36:48;;;;;;;2.72;1.02;;;21.70;59.20;;;;;;4916384;29;20204;-55
2023/04/20 03:39:20;;;;;;;4.07;1.30;;;21.70;59.20;;;;;;4916451;29;20197;-52
2023/04/20 03:41:51;;;;;;;1.58;0.80;;;21.70;59.20;;;;;;4916759;29;20204;-51
2023/04/20 03:44:22;;;;;;;1.10;0.73;;;21.80;59.10;;;;;;4915652;29;20215;-55
2023/04/20 03:46:52;;;;;;;2.63;1.08;;;21.80;59.10;;;;;;4916888;29;20533;-55
2023/04/20 03:49:26;;;;;;;1.88;0.90;;;21.80;59.00;;;;;;4916161;29;20200;-55
2023/04/20 03:51:57;;;;;;;1.95;1.10;;;21.80;59.00;;;;;;4916067;29;20207;-52
2023/04/20 03:54:29;;;;;;;1.35;1.10;;;21.80;59.00;;;;;;4916301;29;20228;-53
2023/04/20 03:57:01;;;;;;;0.90;0.80;;;21.80;58.90;;;;;;4915687;29;20287;-54
2023/04/20 03:59:31;;;;;;;3.47;1.02;;;21.80;59.00;;;;;;4916329;29;20206;-50
2023/04/20 04:02:04;;;;;;;1.90;1.05;;;21.80;59.50;;;;;;4915572;29;20196;-56
2023/04/20 04:04:35;;;;;;;1.73;0.95;;;21.80;58.90;;;;;;4915864;29;20248;-55
2023/04/20 04:07:06;;;;;;;1.67;0.95;;;21.80;58.80;;;;;;4915454;29;20215;-52
2023/04/20 04:09:38;;;;;;;2.35;1.10;;;21.80;58.80;;;;;;4916390;29;20613;-53
2023/04/20 04:12:09;;;;;;;2.53;1.00;;;21.80;58.80;;;;;;4915000;29;20285;-52
2023/04/20 04:14:40;;;;;;;1.10;0.85;;;21.90;58.80;;;;;;4915450;29;20307;-51
2023/04/20 04:17:10;;;;;;;1.25;1.15;;;21.80;58.70;;;;;;4915456;29;20239;-52
2023/04/20 04:19:42;;;;;;;1.80;1.08;;;21.80;58.70;;;;;;4915941;29;20204;-53
2023/04/20 04:22:13;;;;;;;2.78;1.40;;;21.90;58.70;;;;;;4916014;29;20283;-52
2023/04/20 04:24:45;;;;;;;2.85;1.10;;;21.80;58.60;;;;;;4915107;29;20719;-54
2023/04/20 04:27:16;;;;;;;1.92;0.93;;;21.90;58.70;;;;;;4915323;29;20227;-51
2023/04/20 04:29:48;;;;;;;2.55;1.20;;;21.90;58.70;;;;;;4915176;29;20318;-54
2023/04/20 04:32:19;;;;;;;2.38;1.10;;;21.90;58.60;;;;;;4914593;29;20196;-54
2023/04/20 04:34:51;;;;;;;1.40;0.90;;;21.90;58.60;;;;;;4915278;29;20824;-51
2023/04/20 04:37:22;;;;;;;1.20;1.00;;;21.90;58.50;;;;;;4915056;29;20196;-52
2023/04/20 04:39:56;;;;;;;2.22;0.80;;;21.90;58.50;;;;;;4915235;29;20562;-49
2023/04/20 04:42:28;;;;;;;1.88;0.85;;;21.90;58.50;;;;;;4915005;29;20206;-51
2023/04/20 04:45:00;;;;;;;2.75;1.00;;;21.80;58.40;;;;;;4914416;29;20709;-52
2023/04/20 04:47:31;;;;;;;1.90;1.10;;;21.80;58.40;;;;;;4915049;29;20204;-54
2023/04/20 04:50:02;;;;;;;1.90;1.13;;;21.90;58.50;;;;;;4915284;29;20228;-52
2023/04/20 04:52:32;;;;;;;2.08;0.90;;;21.90;58.50;;;;;;4914905;29;20625;-53
2023/04/20 04:55:07;;;;;;;2.47;1.30;;;21.90;58.50;;;;;;4915737;29;20231;-53
2023/04/20 04:57:38;;;;;;;1.08;0.90;;;21.90;58.50;;;;;;4914492;29;20215;-53
2023/04/20 05:00:11;;;;;;;2.88;1.10;;;21.90;58.50;;;;;;4914822;29;20246;-55
2023/04/20 05:02:41;;;;;;;1.70;1.15;;;21.80;58.40;;;;;;4914473;29;20206;-51
2023/04/20 05:05:12;;;;;;;1.88;1.00;;;21.80;58.40;;;;;;4915065;29;20227;-51
2023/04/20 05:07:43;;;;;;;2.72;0.85;;;21.90;58.40;;;;;;4914944;29;20653;-48
2023/04/20 05:10:15;;;;;;;2.33;1.00;;;21.90;58.40;;;;;;4915244;29;20227;-50
2023/04/20 05:12:47;;;;;;;2.78;1.13;;;21.90;58.40;;;;;;4915331;29;20565;-51
2023/04/20 05:15:18;;;;;;;2.70;1.20;;;21.80;58.30;;;;;;4914476;29;20859;-54
2023/04/20 05:17:49;;;;;;;2.20;1.20;;;21.80;58.20;;;;;;4914952;29;20200;-55
2023/04/20 05:20:20;;;;;;;1.70;1.10;;;21.80;58.20;;;;;;4914310;29;20840;-52
2023/04/20 05:22:50;;;;;;;1.70;1.00;;;21.80;58.20;;;;;;4908196;29;20204;-51
2023/04/20 05:25:23;;;;;;;1.92;1.10;;;21.80;58.10;;;;;;4914977;29;20287;-52
2023/04/20 05:27:53;;;;;;;2.05;1.10;;;21.80;58.20;;;;;;4914642;29;20669;-54
2023/04/20 05:30:24;;;;;;;3.00;1.05;;;21.80;58.20;;;;;;4914806;29;20216;-52
2023/04/20 05:32:55;;;;;;;1.40;1.20;;;21.80;58.20;;;;;;4913793;29;20200;-51
2023/04/20 05:35:26;;;;;;;0.98;0.82;;;21.80;58.20;;;;;;4914044;29;20206;-50
2023/04/20 05:37:59;;;;;;;1.48;1.10;;;21.80;58.20;;;;;;4914797;29;20200;-52
2023/04/20 05:40:34;;;;;;;2.38;1.02;;;21.80;58.20;;;;;;4914365;29;20215;-49
2023/04/20 05:43:05;;;;;;;2.53;1.40;;;21.80;58.20;;;;;;4914344;29;20224;-51
2023/04/20 05:45:36;;;;;;;1.30;1.00;;;21.80;58.20;;;;;;4913762;29;20203;-55
2023/04/20 05:48:07;;;;;;;2.13;1.30;;;21.80;58.20;;;;;;4913022;29;20657;-51
2023/04/20 05:50:37;;;;;;;3.75;1.50;;;21.80;58.20;;;;;;4914432;29;20227;-50
2023/04/20 05:53:08;;;;;;;1.25;1.10;;;21.80;58.10;;;;;;4914500;29;20225;-54
2023/04/20 05:55:40;;;;;;;1.58;1.35;;;21.80;58.10;;;;;;4914323;29;20200;-49
2023/04/20 05:58:11;;;;;;;2.17;1.40;;;21.80;58.00;;;;;;4913874;29;20203;-55
2023/04/20 06:00:42;;;;;;;1.63;1.15;;;21.80;58.00;;;;;;4913731;29;20231;-52
2023/04/20 06:03:12;;;;;;;2.13;1.40;;;21.80;58.00;;;;;;4914139;29;20212;-55
2023/04/20 06:05:43;;;;;;;2.55;1.40;;;21.70;58.00;;;;;;4913798;29;20200;-55
2023/04/20 06:08:14;;;;;;;3.60;1.75;;;21.70;57.90;;;;;;4913975;29;20205;-56
2023/04/20 06:10:46;;;;;;;2.13;1.45;;;21.70;58.00;;;;;;4914293;29;20232;-53
2023/04/20 06:13:17;;;;;;;4.10;1.88;;;21.70;58.00;;;;;;4914284;29;20224;-54
2023/04/20 06:15:47;;;;;;;2.47;1.60;;;21.70;58.00;;;;;;4914062;29;20680;-54
2023/04/20 06:18:18;;;;;;;2.13;1.50;;;21.70;58.00;;;;;;4914065;29;20203;-54
2023/04/20 06:20:49;;;;;;;2.67;1.70;;;21.70;58.00;;;;;;4913997;29;20204;-54
2023/04/20 06:23:19;;;;;;;2.60;1.70;;;21.70;58.00;;;;;;4914084;29;20228;-51
2023/04/20 06:25:52;;;;;;;2.10;1.67;;;21.70;58.00;;;;;;4914541;29;20599;-53
2023/04/20 06:28:22;;;;;;;2.15;1.73;;;21.70;58.00;;;;;;4914506;29;20223;-56
2023/04/20 06:30:53;;;;;;;2.20;1.70;;;21.70;58.00;;;;;;4914063;29;20236;-56
2023/04/20 06:33:24;;;;;;;2.40;1.75;;;21.70;58.00;;;;;;4913468;29;20272;-57
2023/04/20 06:35:55;;;;;;;2.35;1.85;;;21.70;58.00;;;;;;4917572;29;20204;-56
2023/04/20 06:38:26;;;;;;;2.15;1.60;;;21.70;57.90;;;;;;4917586;29;20688;-51
2023/04/20 06:41:01;;;;;;;3.30;1.92;;;21.70;57.90;;;;;;4918356;29;20266;-56
2023/04/20 06:43:32;;;;;;;2.35;1.85;;;21.70;57.90;;;;;;4916749;29;20219;-55
2023/04/20 06:46:02;;;;;;;3.42;1.92;;;21.70;57.90;;;;;;4914448;29;20207;-54
2023/04/20 06:48:33;;;;;;;4.13;1.80;;;21.60;57.80;;;;;;4917645;29;20196;-56
2023/04/20 06:51:04;;;;;;;2.78;2.10;;;21.60;57.80;;;;;;4917598;29;20228;-56
2023/04/20 06:53:34;;;;;;;4.05;1.98;;;21.60;57.80;;;;;;4917178;29;20291;-54
2023/04/20 06:56:07;;;;;;;2.90;1.80;;;21.60;57.90;;;;;;4917179;29;20200;-55
2023/04/20 06:58:38;;;;;;;3.40;1.90;;;21.60;57.90;;;;;;4912667;29;20681;-54
2023/04/20 07:01:08;;;;;;;4.50;2.03;;;21.60;57.80;;;;;;4898839;29;20201;-56
2023/04/20 07:03:39;;;;;;;3.00;2.03;;;21.60;57.80;;;;;;4898486;29;20236;-55
2023/04/20 07:06:10;;;;;;;3.08;1.60;;;21.60;57.80;;;;;;4898944;29;20332;-56
2023/04/20 07:08:41;;;;;;;3.03;2.00;;;21.60;57.80;;;;;;4897689;29;20228;-55
2023/04/20 07:11:14;;;;;;;3.22;2.08;;;21.60;57.80;;;;;;4898005;29;20229;-58
2023/04/20 07:13:45;;;;;;;2.55;2.10;;;21.60;57.80;;;;;;4898264;29;20228;-54
2023/04/20 07:16:17;;;;;;;2.65;2.00;;;21.60;57.80;;;;;;4912032;29;20208;-54
2023/04/20 07:18:48;;;;;;;2.45;1.85;;;21.60;57.80;;;;;;4916759;29;20669;-53
2023/04/20 07:21:18;;;;;;;3.33;1.90;;;21.60;57.80;;;;;;4916898;29;20200;-58
2023/04/20 07:23:49;;;;;;;2.75;1.90;;;21.60;57.80;;;;;;4962247;23;20234;-54
2023/04/20 07:26:22;;;;;;;2.22;1.80;;;21.60;57.80;;;;;;4974451;28;20212;-52
2023/04/20 07:28:52;;;;;;;2.05;1.73;;;21.60;57.80;;;;;;4974389;28;20202;-51
2023/04/20 07:31:23;;;;;;;3.63;2.22;;;21.60;57.80;;;;;;4974546;28;20218;-52
2023/04/20 07:33:54;;;;;;;2.45;2.08;;;21.50;57.70;;;;;;4970331;28;20222;-51
2023/04/20 07:36:25;;;;;;;2.30;2.00;;;21.50;57.70;;;;;;4963427;28;20207;-50
2023/04/20 07:38:55;;;;;;;3.88;1.95;;;21.50;57.70;;;;;;4968269;28;20198;-50
2023/04/20 07:41:28;;;;;;;3.40;2.10;;;21.50;57.70;;;;;;4966569;28;20207;-52
2023/04/20 07:43:59;;;;;;;2.45;1.70;;;21.50;57.70;;;;;;4955302;28;20259;-51
2023/04/20 07:46:29;;;;;;;2.40;2.20;;;21.50;57.70;;;;;;4970708;28;20202;-52
2023/04/20 07:49:00;;;;;;;2.67;1.80;;;21.50;57.70;;;;;;4973931;28;20277;-53
2023/04/20 07:51:31;;;;;;;2.53;2.10;;;21.50;57.70;;;;;;4973951;28;20230;-52
2023/04/20 07:54:01;;;;;;;1.83;1.73;;;21.50;57.70;;;;;;4973670;28;20253;-52
2023/04/20 07:56:34;;;;;;;3.45;1.90;;;21.50;57.70;;;;;;4973735;28;20221;-51
2023/04/20 07:59:05;;;;;;;2.72;2.00;;;21.50;57.70;;;;;;4973950;28;20209;-54
2023/04/20 08:01:35;;;;;;;2.30;2.10;;;21.50;58.30;;;;;;4973671;28;20208;-54
2023/04/20 08:04:06;;;;;;;2.38;1.70;;;21.50;57.70;;;;;;4973121;28;20218;-54
2023/04/20 08:06:37;;;;;;;2.60;1.80;;;21.50;57.70;;;;;;4973291;28;20198;-56
2023/04/20 08:09:07;;;;;;;2.33;2.00;;;21.40;57.60;;;;;;4972888;28;20702;-54
2023/04/20 08:11:40;;;;;;;2.28;1.80;;;21.40;57.60;;;;;;4957532;28;20626;-51
2023/04/20 08:14:11;;;;;;;2.03;1.70;;;21.40;58.20;;;;;;4953950;28;20229;-56
2023/04/20 08:16:41;;;;;;;2.20;2.00;;;21.40;57.70;;;;;;4971767;28;20268;-54
2023/04/20 08:19:12;;;;;;;1.92;1.70;;;21.40;57.60;;;;;;4973306;28;20599;-53
2023/04/20 08:21:43;;;;;;;2.13;1.70;;;21.40;57.60;;;;;;4971842;28;20209;-50
2023/04/20 08:24:14;;;;;;;2.45;2.00;;;21.40;57.60;;;;;;5009384;22;20233;-48
2023/04/20 08:26:46;;;;;;;2.72;1.70;;;21.40;57.60;;;;;;4973729;28;20747;-47
2023/04/20 08:29:17;;;;;;;3.50;2.20;;;21.40;57.60;;;;;;4973962;28;20916;-49
2023/04/20 08:31:48;;;;;;;2.30;1.80;;;21.40;58.20;;;;;;4973383;28;20237;-47
2023/04/20 08:34:19;;;;;;;2.03;1.73;;;21.40;57.70;;;;;;4973154;28;20218;-49
2023/04/20 08:36:49;;;;;;;2.00;1.80;;;21.40;57.60;;;;;;4973088;28;20209;-51
2023/04/20 08:39:22;;;;;;;2.10;1.92;;;21.40;57.60;;;;;;4973382;28;20289;-49
2023/04/20 08:41:56;;;;;;;2.15;1.75;;;21.40;57.60;;;;;;4973274;28;20206;-49
2023/04/20 08:44:26;;;;;;;3.25;2.05;;;21.40;57.60;;;;;;4972991;28;20225;-51
2023/04/20 08:46:57;;;;;;;2.22;1.80;;;21.40;57.60;;;;;;4972828;28;20205;-55
2023/04/20 08:49:31;;;;;;;1.95;1.70;;;21.40;57.60;;;;;;4973084;28;20198;-50
2023/04/20 08:52:02;;;;;;;1.90;1.70;;;21.40;57.60;;;;;;4972574;28;20317;-49
2023/04/20 08:54:32;;;;;;;2.53;2.33;;;21.40;57.60;;;;;;4973040;28;20214;-49
2023/04/20 08:57:05;;;;;;;2.97;2.00;;;21.30;57.50;;;;;;4972184;28;20228;-48
2023/04/20 08:59:38;;;;;;;2.50;2.28;;;21.30;57.60;;;;;;4972229;28;20229;-49
2023/04/20 09:02:12;;;;;;;2.42;2.00;;;21.30;57.60;;;;;;4972383;28;20839;-49
2023/04/20 09:04:43;;;;;;;2.65;2.17;;;21.30;57.60;;;;;;4972680;28;20916;-48
2023/04/20 09:07:21;;;;;;;2.90;2.17;;;21.30;57.60;;;;;;4972710;28;20198;-48
2023/04/20 09:09:58;;;;;;;1.90;1.70;;;21.30;57.60;;;;;;4973173;28;20198;-49
2023/04/20 09:12:41;;;;;;;2.25;2.00;;;21.20;57.50;;;;;;4972913;28;20228;-48
2023/04/20 09:15:12;;;;;;;2.58;2.00;;;21.30;57.60;;;;;;4978185;28;20742;-48
2023/04/20 09:17:43;;;;;;;2.78;2.10;;;21.30;57.60;;;;;;4991726;28;20202;-46
2023/04/20 09:20:15;;;;;;;2.33;2.10;;;21.20;57.60;;;;;;4992101;28;20248;-46
2023/04/20 09:22:49;;;;;;;2.00;1.80;;;21.20;57.60;;;;;;4998196;22;20259;-56
2023/04/20 09:25:20;;;;;;;1.90;1.67;;;21.30;57.60;;;;;;4952572;28;20206;-56
2023/04/20 09:28:01;;;;;;;1.85;1.70;;;21.20;57.60;;;;;;4952622;28;20198;-52
2023/04/20 09:30:41;;;;;;;2.15;1.90;;;21.30;57.60;;;;;;4953063;28;20199;-54
2023/04/20 09:33:13;;;;;;;2.70;2.05;;;21.20;57.60;;;;;;4952286;29;20238;-57
2023/04/20 09:35:44;;;;;;;2.67;2.08;;;21.30;57.60;;;;;;4952384;28;20218;-54
2023/04/20 09:38:18;;;;;;;2.80;2.08;;;21.20;57.60;;;;;;4952522;28;20227;-56
2023/04/20 09:40:49;;;;;;;2.15;1.95;;;21.20;57.60;;;;;;4952954;28;20207;-56
2023/04/20 09:43:25;;;;;;;2.53;2.28;;;21.20;57.60;;;;;;4955136;28;20211;-55
2023/04/20 09:45:57;;;;;;;2.55;2.08;;;21.20;57.60;;;;;;4949856;28;20203;-51
2023/04/20 09:48:28;;;;;;;2.80;2.10;;;21.20;57.60;;;;;;4955700;28;20202;-52
2023/04/20 09:50:59;;;;;;;2.42;2.05;;;21.20;57.60;;;;;;4971874;28;20214;-56
2023/04/20 09:53:32;;;;;;;2.25;2.00;;;21.20;57.60;;;;;;4972060;28;20229;-48
2023/04/20 09:56:04;;;;;;;2.60;2.20;;;21.10;57.60;;;;;;4972300;28;20779;-52
2023/04/20 09:58:38;;;;;;;2.63;1.90;;;21.20;57.70;;;;;;4954871;28;20226;-55
2023/04/20 10:01:12;;;;;;;2.67;2.20;;;21.10;57.70;;;;;;4939807;29;20209;-51
2023/04/20 10:03:44;;;;;;;3.83;2.70;;;21.20;57.70;;;;;;4948569;28;20224;-57
2023/04/20 10:06:26;;;;;;;2.35;2.03;;;21.10;57.70;;;;;;4949626;29;20254;-50
2023/04/20 10:08:58;;;;;;;2.83;1.98;;;21.10;57.70;;;;;;4953967;28;20198;-54
2023/04/20 10:11:33;;;;;;;2.58;1.95;;;21.10;57.70;;;;;;4956889;28;20206;-53
2023/04/20 10:14:18;;;;;;;2.03;1.90;;;21.20;57.80;;;;;;4956500;29;20288;-56
2023/04/20 10:17:00;;;;;;;5.70;2.22;;;21.10;57.70;;;;;;4956779;28;20207;-53
2023/04/20 10:19:41;;;;;;;3.13;2.35;;;21.10;57.70;;;;;;4953598;28;20202;-56
2023/04/20 10:22:12;;;;;;;3.58;2.22;;;21.10;57.70;;;;;;4956198;28;20202;-56
2023/04/20 10:24:42;;;;;;;2.67;2.20;;;21.10;58.30;;;;;;4952425;28;20229;-56
2023/04/20 10:27:20;;;;;;;2.42;1.98;;;21.10;57.80;;;;;;4955749;28;20199;-55
2023/04/20 10:29:52;;;;;;;2.40;2.20;;;21.10;58.30;;;;;;4956023;29;20695;-56
2023/04/20 10:32:27;;;;;;;3.10;2.17;;;21.00;57.70;;;;;;4936499;29;20227;-56
2023/04/20 10:35:05;;;;;;;2.63;2.42;;;21.10;57.80;;;;;;4946672;28;20220;-57
2023/04/20 10:37:37;;;;;;;3.60;2.38;;;21.10;57.80;;;;;;4956085;28;20651;-53
2023/04/20 10:40:09;;;;;;;2.88;2.20;;;21.10;57.80;;;;;;4956003;29;20250;-57
2023/04/20 10:42:46;;;;;;;2.20;2.00;;;21.10;57.80;;;;;;4950972;28;20199;-56
2023/04/20 10:45:19;;;;;;;3.05;2.10;;;21.00;57.80;;;;;;4949047;29;20194;-58
2023/04/20 10:47:50;;;;;;;2.40;2.20;;;21.00;57.70;;;;;;4955079;28;20203;-58
2023/04/20 10:50:21;;;;;;;2.30;2.10;;;21.10;57.80;;;;;;4953961;28;20263;-56
2023/04/20 10:52:52;;;;;;;2.38;2.00;;;21.10;57.80;;;;;;4955219;28;20222;-54
2023/04/20 10:55:24;;;;;;;2.72;2.33;;;21.10;57.80;;;;;;4957112;28;20235;-58
2023/04/20 10:57:55;;;;;;;3.00;2.28;;;21.00;58.40;;;;;;4974595;28;20202;-53
2023/04/20 11:00:29;;;;;;;3.22;2.40;;;21.00;57.80;;;;;;4960930;28;20199;-55
2023/04/20 11:03:00;;;;;;;4.70;2.45;;;21.00;57.80;;;;;;4954485;28;20556;-55
2023/04/20 11:05:31;;;;;;;2.80;2.28;;;21.00;58.40;;;;;;4953560;28;20210;-50
2023/04/20 11:08:02;;;;;;;2.13;1.92;;;21.00;57.80;;;;;;4954541;28;20222;-55
2023/04/20 11:10:41;;;;;;;2.70;2.50;;;21.00;57.80;;;;;;4954418;28;20656;-56
2023/04/20 11:13:27;;;;;;;2.92;2.38;;;21.00;57.80;;;;;;4954864;28;20238;-53
2023/04/20 11:16:00;;;;;;;2.63;2.42;;;21.00;57.80;;;;;;4955189;28;20203;-57
2023/04/20 11:18:31;;;;;;;2.60;2.03;;;21.00;57.80;;;;;;4955360;28;20195;-56
2023/04/20 11:21:01;;;;;;;3.40;2.42;;;21.00;57.80;;;;;;4957034;28;21236;-50
2023/04/20 11:23:40;;;;;;;3.50;2.60;;;21.00;57.80;;;;;;4973610;28;20226;-53
2023/04/20 11:26:11;;;;;;;2.30;1.98;;;21.00;57.80;;;;;;4956150;28;20207;-55
2023/04/20 11:28:52;;;;;;;3.00;2.25;;;21.00;57.80;;;;;;4952780;28;20206;-50
2023/04/20 11:31:26;;;;;;;2.55;2.10;;;21.00;57.80;;;;;;4956264;28;20242;-54
2023/04/20 11:33:57;;;;;;;2.65;2.20;;;21.00;57.80;;;;;;4973605;28;20234;-51
2023/04/20 11:36:29;;;;;;;3.85;2.28;;;21.00;57.90;;;;;;4955967;28;20207;-51
2023/04/20 11:39:12;;;;;;;3.03;2.50;;;21.00;57.80;;;;;;4954967;28;20199;-57
2023/04/20 11:41:44;;;;;;;2.80;2.13;;;21.00;57.90;;;;;;4970303;28;20202;-54
2023/04/20 11:44:14;;;;;;;2.47;2.28;;;20.90;58.40;;;;;;4972888;28;20226;-54
2023/04/20 11:46:48;;;;;;;2.20;2.00;;;20.90;57.80;;;;;;4950944;28;20191;-55
2023/04/20 11:49:18;;;;;;;2.60;2.20;;;20.90;57.80;;;;;;4937058;29;20196;-57
2023/04/20 11:51:49;;;;;;;2.10;1.90;;;20.90;57.80;;;;;;4954245;28;20206;-57
2023/04/20 11:54:20;;;;;;;3.05;2.30;;;20.90;57.80;;;;;;4954850;28;20223;-52
2023/04/20 11:56:51;;;;;;;2.97;2.28;;;20.90;58.00;;;;;;4954644;28;20199;-51
2023/04/20 11:59:21;;;;;;;2.58;1.95;;;20.90;57.80;;;;;;4954769;28;20706;-55
2023/04/20 12:01:54;;;;;;;3.45;2.65;;;20.90;57.80;;;;;;4969546;28;20194;-53
2023/04/20 12:04:24;;;;;;;2.50;1.90;;;20.90;57.80;;;;;;4972260;28;20222;-55
2023/04/20 12:06:57;;;;;;;2.67;1.88;;;20.80;57.80;;;;;;4954990;28;20656;-56
2023/04/20 12:09:29;;;;;;;2.63;2.13;;;20.90;57.80;;;;;;4954124;29;20202;-53
2023/04/20 12:12:00;;;;;;;3.20;2.20;;;20.90;57.80;;;;;;4954780;28;20294;-50
2023/04/20 12:14:32;;;;;;;2.20;1.88;;;20.80;57.70;;;;;;4954263;28;20222;-56
2023/04/20 12:17:05;;;;;;;2.40;2.20;;;20.90;58.40;;;;;;4954462;28;20199;-57
2023/04/20 12:19:36;;;;;;;2.95;2.05;;;20.90;57.80;;;;;;4951861;29;20207;-53
2023/04/20 12:22:06;;;;;;;2.38;2.00;;;20.90;57.80;;;;;;4943135;29;20196;-55
2023/04/20 12:24:37;;;;;;;2.50;2.10;;;20.90;57.80;;;;;;4943186;28;20223;-49
2023/04/20 12:27:07;;;;;;;2.30;2.10;;;20.90;57.80;;;;;;4942980;28;20598;-55
2023/04/20 12:29:38;;;;;;;2.90;2.03;;;20.90;57.80;;;;;;4944648;28;20198;-57
2023/04/20 12:32:10;;;;;;;2.35;2.08;;;20.80;57.80;;;;;;4942363;28;20192;-55
2023/04/20 12:34:41;;;;;;;2.40;2.20;;;20.80;57.80;;;;;;4941800;28;20250;-55
2023/04/20 12:37:13;;;;;;;2.80;2.20;;;20.80;57.80;;;;;;4943289;28;20601;-54
2023/04/20 12:39:44;;;;;;;2.38;2.08;;;20.80;57.80;;;;;;4944352;28;20190;-48
2023/04/20 12:42:14;;;;;;;2.20;2.00;;;20.80;57.80;;;;;;4943438;28;20188;-55
2023/04/20 12:44:46;;;;;;;2.60;2.10;;;20.80;57.80;;;;;;4953667;28;20215;-54
2023/04/20 12:47:18;;;;;;;3.05;2.17;;;20.80;57.80;;;;;;4953947;28;20199;-55
2023/04/20 12:49:49;;;;;;;2.60;2.00;;;20.80;57.80;;;;;;4953950;28;20206;-57
2023/04/20 12:52:19;;;;;;;2.95;2.35;;;20.80;57.70;;;;;;4954062;28;20202;-55
2023/04/20 12:54:51;;;;;;;3.50;2.00;;;20.80;57.80;;;;;;4953783;28;20234;-56
2023/04/20 12:57:21;;;;;;;2.03;1.85;;;20.80;57.80;;;;;;4953811;28;20294;-54
2023/04/20 12:59:52;;;;;;;2.22;2.00;;;20.80;57.80;;;;;;4954047;28;20539;-57
2023/04/20 13:02:24;;;;;;;2.03;1.83;;;20.80;57.80;;;;;;4953860;28;20231;-57
2023/04/20 13:04:55;;;;;;;2.53;1.98;;;20.80;57.80;;;;;;4953265;28;20691;-56
2023/04/20 13:07:26;;;;;;;3.10;2.30;;;20.80;57.80;;;;;;4953634;28;20221;-57
2023/04/20 13:09:57;;;;;;;2.50;2.10;;;20.80;57.70;;;;;;4953452;28;20286;-56